createdAt,value
2022-08-09T00:00:00.466Z,102487.34
2022-08-09T00:02:37.257Z,102485.66
2022-08-09T00:06:17.348Z,102483.94
2022-08-09T00:08:04.139Z,102490.13
2022-08-09T00:10:40.723Z,102499.84
2022-08-09T00:13:17.019Z,102490.22
2022-08-09T00:15:58.814Z,102489.38
2022-08-09T00:18:35.629Z,102493.78
2022-08-09T00:21:07.855Z,102492.91
2022-08-09T00:23:58.162Z,102495.56
2022-08-09T00:26:32.145Z,102502.59
2022-08-09T00:29:02.135Z,102499.97
2022-08-09T00:31:58.578Z,102498.22
2022-08-09T00:34:19.360Z,102499.09
2022-08-09T00:36:49.946Z,102486.81
2022-08-09T00:40:13.967Z,102498.22
2022-08-09T00:44:10.259Z,102500.84
2022-08-09T00:44:53.750Z,102493.81
2022-08-09T00:47:25.003Z,102492.91
2022-08-09T00:49:54.875Z,102503.47
2022-08-09T00:52:28.163Z,102495.56
2022-08-09T00:55:02.269Z,102490.25
2022-08-09T00:57:34.511Z,102484.97
2022-08-09T01:00:21.825Z,102485.88
2022-08-09T01:02:58.248Z,102487.66
2022-08-09T01:05:50.951Z,102487.66
2022-08-09T01:09:17.627Z,102490.31
2022-08-09T01:12:09.120Z,102492.06
2022-08-09T01:15:10.083Z,102492.03
2022-08-09T01:17:59.545Z,102492.91
2022-08-09T01:21:05.631Z,102496.44
2022-08-09T01:24:05.030Z,102494.69
2022-08-09T01:27:07.872Z,102497.31
2022-08-09T01:29:58.020Z,102496.44
2022-08-09T01:32:45.286Z,102501.72
2022-08-09T01:35:37.792Z,102507.88
2022-08-09T01:38:14.936Z,102508.75
2022-08-09T01:40:52.456Z,102493.84
2022-08-09T01:43:50.233Z,102507.00
2022-08-09T01:46:27.495Z,102499.97
2022-08-09T01:48:59.625Z,102505.25
2022-08-09T01:51:33.075Z,102500.84
2022-08-09T01:54:04.049Z,102499.97
2022-08-09T01:56:33.920Z,102500.84
2022-08-09T01:59:08.296Z,102507.88
2022-08-09T02:01:58.070Z,102504.38
2022-08-09T02:04:26.392Z,102510.53
2022-08-09T02:07:15.524Z,102514.06
2022-08-09T02:10:15.358Z,102507.03
2022-08-09T02:12:46.028Z,102507.91
2022-08-09T02:15:18.226Z,102509.66
2022-08-09T02:18:01.601Z,102513.19
2022-08-09T02:20:44.248Z,102508.78
2022-08-09T02:23:31.999Z,102514.06
2022-08-09T02:26:08.187Z,102514.94
2022-08-09T02:28:56.350Z,102507.91
2022-08-09T02:31:35.544Z,102509.66
2022-08-09T02:34:25.827Z,102509.63
2022-08-09T02:37:05.725Z,102513.16
2022-08-09T02:39:54.918Z,102524.56
2022-08-09T02:42:35.043Z,102511.38
2022-08-09T02:45:11.744Z,102520.19
2022-08-09T02:47:57.559Z,102524.59
2022-08-09T02:50:56.155Z,102513.16
2022-08-09T02:53:34.921Z,102518.38
2022-08-09T02:56:04.543Z,102519.25
2022-08-09T02:58:36.639Z,102511.31
2022-08-09T03:01:07.733Z,102515.69
2022-08-09T03:04:16.727Z,102517.44
2022-08-09T03:06:27.639Z,102517.41
2022-08-09T03:08:55.596Z,102520.91
2022-08-09T03:11:29.917Z,102515.63
2022-08-09T03:14:12.938Z,102528.81
2022-08-09T03:16:45.273Z,102523.56
2022-08-09T03:19:59.683Z,102525.31
2022-08-09T03:22:12.473Z,102523.53
2022-08-09T03:25:06.371Z,102519.97
2022-08-09T03:27:47.566Z,102518.16
2022-08-09T03:30:23.635Z,102519.88
2022-08-09T03:33:13.036Z,102527.75
2022-08-09T03:36:15.933Z,102530.38
2022-08-09T03:38:41.982Z,102536.44
2022-08-09T03:41:15.530Z,102520.63
2022-08-09T03:44:03.341Z,102525.91
2022-08-09T03:46:31.348Z,102532.03
2022-08-09T03:49:04.015Z,102530.31
2022-08-09T03:51:57.222Z,102526.84
2022-08-09T03:54:29.560Z,102530.34
2022-08-09T03:57:04.397Z,102540.00
2022-08-09T03:59:53.230Z,102529.50
2022-08-09T04:02:28.733Z,102536.53
2022-08-09T04:04:59.199Z,102539.13
2022-08-09T04:07:46.974Z,102539.06
2022-08-09T04:10:20.307Z,102546.91
2022-08-09T04:12:51.491Z,102548.72
2022-08-09T04:15:52.043Z,102546.16
2022-08-09T04:18:16.513Z,102554.09
2022-08-09T04:20:46.979Z,102552.38
2022-08-09T04:23:16.831Z,102558.56
2022-08-09T04:25:51.777Z,102558.56
2022-08-09T04:28:34.027Z,102556.81
2022-08-09T04:31:08.406Z,102562.97
2022-08-09T04:33:51.930Z,102561.16
2022-08-09T04:36:28.332Z,102569.06
2022-08-09T04:39:03.102Z,102566.44
2022-08-09T04:41:32.153Z,102563.78
2022-08-09T04:44:06.995Z,102568.19
2022-08-09T04:46:59.647Z,102567.25
2022-08-09T04:49:40.363Z,102581.19
2022-08-09T04:52:18.557Z,102574.94
2022-08-09T04:54:55.864Z,102581.88
2022-08-09T04:57:24.195Z,102574.88
2022-08-09T04:59:54.601Z,102581.09
2022-08-09T05:02:27.097Z,102574.13
2022-08-09T05:04:55.313Z,102574.09
2022-08-09T05:07:22.815Z,102576.72
2022-08-09T05:09:50.317Z,102582.00
2022-08-09T05:12:17.472Z,102578.44
2022-08-09T05:14:45.418Z,102588.16
2022-08-09T05:18:36.680Z,102582.97
2022-08-09T05:19:59.436Z,102590.97
2022-08-09T05:22:33.198Z,102587.50
2022-08-09T05:25:05.333Z,102591.97
2022-08-09T05:27:32.267Z,102589.34
2022-08-09T05:29:59.176Z,102586.81
2022-08-09T05:32:30.032Z,102585.94
2022-08-09T05:34:57.204Z,102589.47
2022-08-09T05:37:25.229Z,102592.19
2022-08-09T05:39:52.497Z,102587.81
2022-08-09T05:42:21.225Z,102593.16
2022-08-09T05:44:54.108Z,102589.63
2022-08-09T05:47:23.182Z,102587.03
2022-08-09T05:50:25.629Z,102590.56
2022-08-09T05:52:42.014Z,102601.13
2022-08-09T05:55:18.108Z,102592.34
2022-08-09T05:57:50.927Z,102595.00
2022-08-09T06:00:26.972Z,102597.63
2022-08-09T06:03:01.748Z,102595.84
2022-08-09T06:05:57.591Z,102594.13
2022-08-09T06:08:19.362Z,102601.13
2022-08-09T06:10:53.390Z,102601.16
2022-08-09T06:13:20.981Z,102595.88
2022-08-09T06:15:52.867Z,102601.13
2022-08-09T06:18:24.841Z,102605.56
2022-08-09T06:20:57.759Z,102601.16
2022-08-09T06:23:57.519Z,102601.16
2022-08-09T06:26:22.102Z,102602.94
2022-08-09T06:29:00.004Z,102606.41
2022-08-09T06:31:31.207Z,102603.78
2022-08-09T06:34:07.332Z,102610.78
2022-08-09T06:36:34.483Z,102616.03
2022-08-09T06:39:02.674Z,102608.94
2022-08-09T06:42:06.375Z,102607.16
2022-08-09T06:44:25.408Z,102611.50
2022-08-09T06:46:55.410Z,102606.16
2022-08-09T06:49:44.875Z,102593.75
2022-08-09T06:52:11.946Z,102598.09
2022-08-09T06:54:39.214Z,102601.53
2022-08-09T06:57:08.602Z,102600.66
2022-08-09T07:00:49.453Z,102601.47
2022-08-09T07:02:30.880Z,102600.50
2022-08-09T07:04:59.822Z,102606.63
2022-08-09T07:08:00.767Z,102610.03
2022-08-09T07:10:29.385Z,102610.78
2022-08-09T07:12:57.655Z,102610.72
2022-08-09T07:16:36.393Z,102612.38
2022-08-09T07:18:14.285Z,102614.94
2022-08-09T07:20:43.808Z,102613.94
2022-08-09T07:23:18.719Z,102615.59
2022-08-09T07:25:47.139Z,102621.63
2022-08-09T07:28:19.005Z,102628.63
2022-08-09T07:30:45.985Z,102611.84
2022-08-09T07:33:16.659Z,102609.03
2022-08-09T07:35:53.907Z,102623.91
2022-08-09T07:38:23.289Z,102615.88
2022-08-09T07:41:08.150Z,102622.00
2022-08-09T07:43:40.970Z,102619.25
2022-08-09T07:46:19.330Z,102629.75
2022-08-09T07:48:52.745Z,102625.19
2022-08-09T07:52:05.844Z,102626.75
2022-08-09T07:54:14.109Z,102632.75
2022-08-09T07:56:48.756Z,102629.09
2022-08-09T07:59:25.723Z,102627.25
2022-08-09T08:02:04.976Z,102631.53
2022-08-09T08:04:33.206Z,102635.78
2022-08-09T08:07:15.319Z,102627.72
2022-08-09T08:10:04.784Z,102634.63
2022-08-09T08:12:39.976Z,102631.81
2022-08-09T08:15:17.846Z,102637.88
2022-08-09T08:17:54.663Z,102630.66
2022-08-09T08:20:29.574Z,102624.38
2022-08-09T08:23:03.719Z,102627.75
2022-08-09T08:25:44.406Z,102626.59
2022-08-09T08:28:15.194Z,102628.97
2022-08-09T08:30:43.910Z,102624.25
2022-08-09T08:33:11.912Z,102625.81
2022-08-09T08:35:58.500Z,102622.88
2022-08-09T08:38:27.910Z,102619.97
2022-08-09T08:40:56.637Z,102629.50
2022-08-09T08:43:26.456Z,102617.75
2022-08-09T08:46:32.711Z,102626.41
2022-08-09T08:48:53.680Z,102628.69
2022-08-09T08:51:23.054Z,102626.81
2022-08-09T08:54:04.062Z,102630.16
2022-08-09T08:56:38.183Z,102628.13
2022-08-09T08:59:20.192Z,102629.63
2022-08-09T09:01:53.077Z,102633.78
2022-08-09T09:04:37.815Z,102623.84
2022-08-09T09:07:15.799Z,102617.75
2022-08-09T09:10:01.897Z,102633.88
2022-08-09T09:12:33.973Z,102633.25
2022-08-09T09:15:05.728Z,102634.47
2022-08-09T09:17:49.293Z,102634.78
2022-08-09T09:20:20.634Z,102631.53
2022-08-09T09:23:01.895Z,102634.38
2022-08-09T09:26:02.034Z,102630.09
2022-08-09T09:29:03.030Z,102632.75
2022-08-09T09:32:04.048Z,102638.22
2022-08-09T09:34:18.195Z,102640.84
2022-08-09T09:36:52.759Z,102643.22
2022-08-09T09:39:23.610Z,102633.25
2022-08-09T09:42:27.743Z,102637.78
2022-08-09T09:45:00.369Z,102637.59
2022-08-09T09:47:28.819Z,102640.03
2022-08-09T09:50:14.987Z,102641.47
2022-08-09T09:52:56.522Z,102623.81
2022-08-09T09:55:31.310Z,102637.06
2022-08-09T09:58:17.376Z,102639.00
2022-08-09T10:00:59.167Z,102633.81
2022-08-09T10:03:56.289Z,102623.25
2022-08-09T10:06:25.175Z,102631.75
2022-08-09T10:09:02.822Z,102630.47
2022-08-09T10:12:01.412Z,102628.41
2022-08-09T10:14:33.058Z,102626.50
2022-08-09T10:17:40.177Z,102622.88
2022-08-09T10:20:27.617Z,102621.81
2022-08-09T10:23:20.064Z,102616.28
2022-08-09T10:26:07.415Z,102617.78
2022-08-09T10:28:37.404Z,102627.34
2022-08-09T10:34:32.299Z,102624.28
2022-08-09T10:36:40.012Z,102619.25
2022-08-09T10:39:15.780Z,102620.34
2022-08-09T10:41:46.251Z,102618.50
2022-08-09T10:44:19.371Z,102607.75
2022-08-09T10:48:13.144Z,102611.94
2022-08-09T10:50:31.143Z,102614.31
2022-08-09T10:53:38.044Z,102615.66
2022-08-09T10:56:40.533Z,102607.44
2022-08-09T10:59:23.217Z,102598.34
2022-08-09T11:03:18.328Z,102607.03
2022-08-09T11:05:25.461Z,102609.38
2022-08-09T11:07:59.478Z,102606.47
2022-08-09T11:10:47.296Z,102612.63
2022-08-09T11:13:22.074Z,102605.63
2022-08-09T11:16:33.598Z,102604.03
2022-08-09T11:19:07.966Z,102608.31
2022-08-09T11:21:57.115Z,102600.19
2022-08-09T11:24:58.024Z,102605.28
2022-08-09T11:28:03.972Z,102606.03
2022-08-09T11:30:33.606Z,102605.91
2022-08-09T11:33:19.118Z,102603.06
2022-08-09T11:35:57.481Z,102603.69
2022-08-09T11:38:32.275Z,102603.28
2022-08-09T11:41:13.170Z,102598.34
2022-08-09T11:43:49.363Z,102597.88
2022-08-09T11:46:32.894Z,102598.38
2022-08-09T11:49:04.910Z,102591.75
2022-08-09T11:53:04.097Z,102589.50
2022-08-09T11:55:51.593Z,102598.09
2022-08-09T11:58:30.460Z,102598.97
2022-08-09T12:01:08.765Z,102597.31
2022-08-09T12:03:56.768Z,102592.84
2022-08-09T12:06:32.876Z,102583.25
2022-08-09T12:09:15.283Z,102579.66
2022-08-09T12:12:03.239Z,102594.81
2022-08-09T12:14:40.676Z,102580.66
2022-08-09T12:17:28.088Z,102582.84
2022-08-09T12:20:16.685Z,102583.94
2022-08-09T12:22:59.833Z,102579.66
2022-08-09T12:25:31.847Z,102565.66
2022-08-09T12:28:59.036Z,102571.03
2022-08-09T12:31:10.720Z,102575.28
2022-08-09T12:33:58.528Z,102575.22
2022-08-09T12:36:32.257Z,102572.59
2022-08-09T12:39:02.293Z,102565.38
2022-08-09T12:41:39.093Z,102573.56
2022-08-09T12:44:10.031Z,102570.13
2022-08-09T12:46:49.011Z,102575.72
2022-08-09T12:49:18.341Z,102576.81
2022-08-09T12:52:02.655Z,102578.94
2022-08-09T12:56:02.339Z,102575.84
2022-08-09T12:57:46.176Z,102579.75
2022-08-09T13:00:18.601Z,102572.59
2022-08-09T13:02:57.807Z,102566.97
2022-08-09T13:05:52.476Z,102566.25
2022-08-09T13:08:39.766Z,102571.88
2022-08-09T13:11:23.018Z,102565.88
2022-08-09T13:14:42.486Z,102558.97
2022-08-09T13:16:47.654Z,102567.38
2022-08-09T13:20:09.772Z,102561.72
2022-08-09T13:22:35.530Z,102567.19
2022-08-09T13:25:07.627Z,102566.66
2022-08-09T13:27:39.870Z,102561.41
2022-08-09T13:30:51.591Z,102541.88
2022-08-09T13:33:11.700Z,102555.72
2022-08-09T13:36:24.723Z,102548.19
2022-08-09T13:38:57.238Z,102548.75
2022-08-09T13:41:57.881Z,102550.56
2022-08-09T13:44:13.800Z,102560.97
2022-08-09T13:47:25.234Z,102561.66
2022-08-09T13:49:37.784Z,102561.72
2022-08-09T13:52:09.160Z,102564.75
2022-08-09T13:54:43.065Z,102556.41
2022-08-09T13:57:36.934Z,102562.47
2022-08-09T14:00:18.621Z,102547.16
2022-08-09T14:03:03.939Z,102549.47
2022-08-09T14:05:56.461Z,102562.34
2022-08-09T14:08:26.851Z,102552.56
2022-08-09T14:10:55.570Z,102537.31
2022-08-09T14:14:16.418Z,102545.09
2022-08-09T14:16:18.663Z,102555.66
2022-08-09T14:18:51.698Z,102541.09
2022-08-09T14:21:24.388Z,102555.00
2022-08-09T14:23:56.709Z,102544.16
2022-08-09T14:26:32.089Z,102548.34
2022-08-09T14:29:08.103Z,102552.63
2022-08-09T14:31:53.444Z,102555.31
2022-08-09T14:34:30.726Z,102550.44
2022-08-09T14:37:07.494Z,102554.63
2022-08-09T14:39:46.915Z,102553.03
2022-08-09T14:42:30.275Z,102548.63
2022-08-09T14:46:39.805Z,102552.28
2022-08-09T14:47:57.995Z,102546.06
2022-08-09T14:50:27.356Z,102548.75
2022-08-09T14:52:54.518Z,102549.50
2022-08-09T14:55:21.680Z,102549.50
2022-08-09T14:57:49.322Z,102546.16
2022-08-09T15:00:18.058Z,102542.50
2022-08-09T15:02:47.795Z,102551.91
2022-08-09T15:05:19.718Z,102545.53
2022-08-09T15:07:54.843Z,102544.19
2022-08-09T15:10:25.578Z,102541.06
2022-08-09T15:12:56.851Z,102539.13
2022-08-09T15:15:24.774Z,102542.47
2022-08-09T15:17:56.289Z,102543.13
2022-08-09T15:22:01.049Z,102540.25
2022-08-09T15:24:05.656Z,102556.94
2022-08-09T15:25:59.210Z,102541.59
2022-08-09T15:28:28.526Z,102544.22
2022-08-09T15:31:10.132Z,102554.78
2022-08-09T15:34:15.543Z,102552.06
2022-08-09T15:36:29.098Z,102555.03
2022-08-09T15:38:58.899Z,102553.63
2022-08-09T15:41:31.574Z,102554.53
2022-08-09T15:44:01.762Z,102551.72
2022-08-09T15:46:33.525Z,102552.63
2022-08-09T15:49:21.860Z,102557.47
2022-08-09T15:52:03.214Z,102555.19
2022-08-09T15:54:44.745Z,102552.63
2022-08-09T15:57:34.274Z,102553.91
2022-08-09T16:00:24.381Z,102552.84
2022-08-09T16:02:56.538Z,102550.88
2022-08-09T16:05:47.606Z,102555.88
2022-08-09T16:08:30.028Z,102550.56
2022-08-09T16:10:59.747Z,102551.38
2022-08-09T16:14:02.753Z,102546.44
2022-08-09T16:16:18.323Z,102543.38
2022-08-09T16:18:49.848Z,102543.50
2022-08-09T16:21:25.582Z,102540.84
2022-08-09T16:23:58.766Z,102544.44
2022-08-09T16:26:34.484Z,102549.06
2022-08-09T16:29:20.679Z,102546.63
2022-08-09T16:32:17.828Z,102543.97
2022-08-09T16:34:55.064Z,102545.78
2022-08-09T16:37:54.572Z,102550.25
2022-08-09T16:40:13.030Z,102547.88
2022-08-09T16:42:45.369Z,102553.50
2022-08-09T16:45:18.625Z,102553.56
2022-08-09T16:48:40.590Z,102551.84
2022-08-09T16:50:38.527Z,102561.59
2022-08-09T16:53:05.928Z,102557.22
2022-08-09T16:55:59.842Z,102563.78
2022-08-09T16:58:21.139Z,102553.72
2022-08-09T17:00:49.532Z,102560.47
2022-08-09T17:03:22.192Z,102560.84
2022-08-09T17:06:07.036Z,102560.69
2022-08-09T17:09:02.754Z,102562.38
2022-08-09T17:11:40.812Z,102566.75
2022-08-09T17:14:25.821Z,102559.38
2022-08-09T17:16:59.954Z,102557.00
2022-08-09T17:19:46.886Z,102557.63
2022-08-09T17:22:23.675Z,102564.44
2022-08-09T17:24:55.369Z,102561.88
2022-08-09T17:27:22.932Z,102560.63
2022-08-09T17:29:51.441Z,102563.94
2022-08-09T17:32:20.303Z,102560.44
2022-08-09T17:35:01.415Z,102565.31
2022-08-09T17:38:11.467Z,102566.69
2022-08-09T17:40:25.928Z,102567.00
2022-08-09T17:42:59.548Z,102570.00
2022-08-09T17:46:01.885Z,102573.09
2022-08-09T17:48:17.524Z,102583.19
2022-08-09T17:50:56.433Z,102582.53
2022-08-09T17:53:31.924Z,102573.09
2022-08-09T17:56:03.282Z,102577.88
2022-08-09T17:58:34.579Z,102584.41
2022-08-09T18:01:01.660Z,102591.88
2022-08-09T18:03:30.491Z,102587.78
2022-08-09T18:06:01.025Z,102588.13
2022-08-09T18:08:28.879Z,102586.63
2022-08-09T18:11:01.600Z,102593.00
2022-08-09T18:13:43.094Z,102591.38
2022-08-09T18:16:28.918Z,102592.53
2022-08-09T18:18:57.144Z,102584.19
2022-08-09T18:21:26.188Z,102594.31
2022-08-09T18:24:10.591Z,102602.72
2022-08-09T18:26:46.375Z,102599.53
2022-08-09T18:30:42.195Z,102601.53
2022-08-09T18:32:03.083Z,102607.88
2022-08-09T18:34:31.648Z,102610.47
2022-08-09T18:36:58.875Z,102603.31
2022-08-09T18:39:32.598Z,102605.84
2022-08-09T18:42:05.368Z,102604.09
2022-08-09T18:44:35.898Z,102602.25
2022-08-09T18:47:05.156Z,102612.00
2022-08-09T18:49:43.227Z,102610.28
2022-08-09T18:52:16.077Z,102609.50
2022-08-09T18:54:52.635Z,102619.41
2022-08-09T18:57:21.871Z,102628.47
2022-08-09T18:59:55.382Z,102616.34
2022-08-09T19:02:31.993Z,102626.97
2022-08-09T19:05:03.667Z,102626.97
2022-08-09T19:07:43.292Z,102635.03
2022-08-09T19:10:29.579Z,102632.47
2022-08-09T19:13:21.953Z,102640.53
2022-08-09T19:15:52.441Z,102625.72
2022-08-09T19:18:35.767Z,102632.03
2022-08-09T19:21:09.171Z,102633.84
2022-08-09T19:24:31.882Z,102626.75
2022-08-09T19:26:31.548Z,102627.72
2022-08-09T19:29:15.117Z,102629.69
2022-08-09T19:31:46.525Z,102621.88
2022-08-09T19:34:22.780Z,102627.25
2022-08-09T19:36:52.415Z,102631.72
2022-08-09T19:39:29.057Z,102623.75
2022-08-09T19:42:07.355Z,102623.81
2022-08-09T19:44:34.299Z,102621.19
2022-08-09T19:47:01.859Z,102622.13
2022-08-09T19:50:07.640Z,102626.69
2022-08-09T19:52:16.363Z,102630.34
2022-08-09T19:54:45.263Z,102639.28
2022-08-09T19:57:12.523Z,102631.41
2022-08-09T20:00:05.670Z,102635.91
2022-08-09T20:04:07.524Z,102633.34
2022-08-09T20:05:16.622Z,102632.63
2022-08-09T20:07:59.671Z,102629.13
2022-08-09T20:10:36.225Z,102639.78
2022-08-09T20:13:06.561Z,102631.88
2022-08-09T20:16:36.942Z,102630.16
2022-08-09T20:18:22.783Z,102636.38
2022-08-09T20:20:55.579Z,102633.78
2022-08-09T20:23:23.669Z,102636.47
2022-08-09T20:25:53.455Z,102637.41
2022-08-09T20:28:27.997Z,102639.19
2022-08-09T20:31:04.962Z,102633.03
2022-08-09T20:33:38.895Z,102637.47
2022-08-09T20:36:09.359Z,102639.28
2022-08-09T20:39:28.913Z,102632.28
2022-08-09T20:41:35.198Z,102642.03
2022-08-09T20:44:06.857Z,102637.66
2022-08-09T20:46:43.324Z,102636.84
2022-08-09T20:49:16.005Z,102638.72
2022-08-09T20:51:45.410Z,102636.13
2022-08-09T20:54:18.021Z,102634.41
2022-08-09T20:56:47.136Z,102631.78
2022-08-09T20:59:16.709Z,102634.50
2022-08-09T21:01:50.482Z,102637.16
2022-08-09T21:05:52.141Z,102639.84
2022-08-09T21:07:12.767Z,102644.28
2022-08-09T21:09:56.351Z,102650.50
2022-08-09T21:15:23.631Z,102639.09
2022-08-09T21:18:21.119Z,102648.81
2022-08-09T21:20:51.772Z,102647.06
2022-08-09T21:23:21.219Z,102643.59
2022-08-09T21:25:59.373Z,102642.75
2022-08-09T21:28:34.303Z,102648.91
2022-08-09T21:31:13.509Z,102648.06
2022-08-09T21:33:51.505Z,102645.47
2022-08-09T21:36:27.922Z,102654.31
2022-08-09T21:38:58.634Z,102649.03
2022-08-09T21:42:00.193Z,102654.31
2022-08-09T21:44:32.724Z,102661.44
2022-08-09T21:47:04.721Z,102648.31
2022-08-09T21:49:39.589Z,102662.38
2022-08-09T21:52:16.669Z,102657.06
2022-08-09T21:54:59.383Z,102650.97
2022-08-09T21:57:38.324Z,102655.38
2022-08-09T22:00:33.349Z,102653.66
2022-08-09T22:03:07.480Z,102663.34
2022-08-09T22:05:42.386Z,102656.34
2022-08-09T22:08:14.583Z,102663.41
2022-08-09T22:11:48.991Z,102664.31
2022-08-09T22:13:37.221Z,102665.22
2022-08-09T22:16:09.057Z,102667.00
2022-08-09T22:18:53.041Z,102668.75
2022-08-09T22:21:27.454Z,102676.75
2022-08-09T22:24:16.647Z,102672.34
2022-08-09T22:26:47.818Z,102668.84
2022-08-09T22:29:19.449Z,102664.44
2022-08-09T22:31:57.049Z,102660.03
2022-08-09T22:34:26.441Z,102665.34
2022-08-09T22:36:58.463Z,102662.72
2022-08-09T22:39:57.097Z,102666.22
2022-08-09T22:42:20.752Z,102665.34
2022-08-09T22:44:48.887Z,102672.41
2022-08-09T22:48:14.691Z,102658.31
2022-08-09T22:50:13.784Z,102654.81
2022-08-09T22:52:40.706Z,102660.09
2022-08-09T22:55:08.594Z,102663.63
2022-08-09T22:57:59.973Z,102661.00
2022-08-09T23:00:29.292Z,102663.63
2022-08-09T23:02:56.785Z,102670.69
2022-08-09T23:05:25.585Z,102669.84
2022-08-09T23:08:23.047Z,102674.25
2022-08-09T23:10:56.354Z,102670.72
2022-08-09T23:13:23.411Z,102673.34
2022-08-09T23:16:03.378Z,102663.66
2022-08-09T23:18:31.124Z,102665.44
2022-08-09T23:20:58.043Z,102666.31
2022-08-09T23:23:25.044Z,102665.44
2022-08-09T23:25:52.029Z,102657.47
2022-08-09T23:28:18.919Z,102657.47
2022-08-09T23:30:51.276Z,102656.59
2022-08-09T23:33:20.833Z,102651.28
2022-08-09T23:36:06.020Z,102653.06
2022-08-09T23:38:35.952Z,102647.75
2022-08-09T23:41:27.968Z,102652.13
2022-08-09T23:43:58.551Z,102649.50
2022-08-09T23:46:25.723Z,102654.75
2022-08-09T23:48:52.655Z,102650.34
2022-08-09T23:51:19.581Z,102649.47
2022-08-09T23:53:47.442Z,102651.22
2022-08-09T23:56:17.594Z,102646.81
2022-08-09T23:59:04.919Z,102644.19
